createdAt,value
2019-01-20T00:02:14.693Z,4.15
2019-01-20T00:04:45.084Z,4.16
2019-01-20T00:07:15.429Z,4.31
2019-01-20T00:09:45.863Z,4.35
2019-01-20T00:12:16.541Z,4.31
2019-01-20T00:14:46.835Z,4.44
2019-01-20T00:17:17.715Z,4.27
2019-01-20T00:19:48.389Z,4.39
2019-01-20T00:22:18.729Z,4.39
2019-01-20T00:24:49.254Z,4.43
2019-01-20T00:27:20.157Z,4.54
2019-01-20T00:29:50.468Z,4.22
2019-01-20T00:32:20.867Z,4.36
2019-01-20T00:34:51.441Z,4.19
2019-01-20T00:37:22.045Z,4.17
2019-01-20T00:39:52.408Z,4.47
2019-01-20T00:42:22.927Z,4.29
2019-01-20T00:44:53.379Z,4.31
2019-01-20T00:47:25.366Z,4.29
2019-01-20T00:49:55.780Z,4.37
2019-01-20T00:52:26.090Z,4.27
2019-01-20T00:54:56.857Z,4.22
2019-01-20T00:57:28.364Z,4.24
2019-01-20T00:59:58.663Z,4.22
2019-01-20T01:02:29.512Z,4.24
2019-01-20T01:04:59.845Z,4.19
2019-01-20T01:07:30.419Z,4.14
2019-01-20T01:10:00.715Z,4.24
2019-01-20T01:12:31.348Z,4.20
2019-01-20T01:15:02.029Z,2.39
2019-01-20T01:17:33.520Z,4.09
2019-01-20T01:20:04.558Z,3.91
2019-01-20T01:22:35.175Z,4.02
2019-01-20T01:25:06.743Z,4.04
2019-01-20T01:27:37.132Z,4.05
2019-01-20T01:30:20.398Z,4.19
2019-01-20T01:32:51.195Z,4.09
2019-01-20T01:35:21.477Z,4.00
2019-01-20T01:37:53.025Z,4.00
2019-01-20T01:40:23.319Z,4.05
2019-01-20T01:42:54.135Z,4.11
2019-01-20T01:45:24.601Z,4.01
2019-01-20T01:47:55.021Z,3.86
2019-01-20T01:50:25.804Z,3.91
2019-01-20T01:52:56.377Z,3.86
2019-01-20T01:55:26.718Z,3.77
2019-01-20T01:57:57.681Z,3.84
2019-01-20T02:00:28.437Z,3.90
2019-01-20T02:02:58.927Z,3.91
2019-01-20T02:05:29.296Z,3.95
2019-01-20T02:08:00.006Z,4.09
2019-01-20T02:10:30.341Z,4.11
2019-01-20T02:13:00.809Z,4.19
2019-01-20T02:15:32.640Z,4.29
2019-01-20T02:18:03.009Z,4.24
2019-01-20T02:20:33.322Z,4.12
2019-01-20T02:23:04.386Z,4.22
2019-01-20T02:25:35.830Z,4.02
2019-01-20T02:28:06.193Z,4.17
2019-01-20T02:30:36.772Z,4.22
2019-01-20T02:33:07.467Z,4.19
2019-01-20T02:35:37.780Z,4.18
2019-01-20T02:38:08.478Z,4.13
2019-01-20T02:40:39.079Z,4.15
2019-01-20T02:43:09.482Z,4.33
2019-01-20T02:45:40.073Z,4.16
2019-01-20T02:48:10.584Z,4.08
2019-01-20T02:50:42.177Z,4.21
2019-01-20T02:53:13.042Z,4.11
2019-01-20T02:55:44.331Z,4.12
2019-01-20T02:58:15.159Z,4.17
2019-01-20T03:00:45.905Z,4.26
2019-01-20T03:03:16.226Z,4.23
2019-01-20T03:05:46.558Z,4.26
2019-01-20T03:08:16.994Z,4.38
2019-01-20T03:10:47.275Z,4.24
2019-01-20T03:13:17.639Z,4.31
2019-01-20T03:15:48.077Z,4.26
2019-01-20T03:18:18.708Z,4.32
2019-01-20T03:20:49.400Z,4.29
2019-01-20T03:23:19.774Z,4.28
2019-01-20T03:25:50.206Z,4.11
2019-01-20T03:28:21.943Z,4.18
2019-01-20T03:30:52.308Z,4.18
2019-01-20T03:33:22.726Z,4.21
2019-01-20T03:35:53.259Z,4.15
2019-01-20T03:38:23.530Z,4.26
2019-01-20T03:40:53.889Z,4.24
2019-01-20T03:43:24.658Z,4.16
2019-01-20T03:45:55.195Z,4.32
2019-01-20T03:48:26.061Z,4.16
2019-01-20T03:50:56.587Z,4.11
2019-01-20T03:53:26.954Z,4.06
2019-01-20T03:55:57.971Z,4.17
2019-01-20T03:58:28.455Z,4.13
2019-01-20T04:00:58.821Z,4.20
2019-01-20T04:03:29.436Z,4.19
2019-01-20T04:05:59.828Z,3.97
2019-01-20T04:08:30.126Z,3.92
2019-01-20T04:11:00.951Z,4.05
2019-01-20T04:13:31.641Z,4.03
2019-01-20T04:16:01.941Z,4.02
2019-01-20T04:18:32.746Z,3.93
2019-01-20T04:21:03.026Z,3.93
2019-01-20T04:23:33.608Z,4.07
2019-01-20T04:26:04.259Z,4.08
2019-01-20T04:28:34.576Z,4.05
2019-01-20T04:31:05.279Z,3.96
2019-01-20T04:33:35.933Z,3.99
2019-01-20T04:36:06.202Z,3.86
2019-01-20T04:38:36.979Z,3.63
2019-01-20T04:41:07.572Z,3.64
2019-01-20T04:43:37.946Z,3.67
2019-01-20T04:46:08.514Z,3.83
2019-01-20T04:48:39.101Z,3.81
2019-01-20T04:51:09.475Z,3.81
2019-01-20T04:53:40.787Z,3.85
2019-01-20T04:56:11.099Z,3.80
2019-01-20T04:58:41.889Z,3.84
2019-01-20T05:01:12.280Z,3.92
2019-01-20T05:03:42.585Z,3.95
2019-01-20T05:06:12.941Z,4.10
2019-01-20T05:08:43.812Z,4.00
2019-01-20T05:11:14.115Z,4.02
2019-01-20T05:13:44.559Z,3.97
2019-01-20T05:16:15.222Z,4.06
2019-01-20T05:18:45.711Z,4.09
2019-01-20T05:21:17.073Z,4.16
2019-01-20T05:23:47.711Z,4.16
2019-01-20T05:26:18.302Z,4.09
2019-01-20T05:28:49.067Z,4.05
2019-01-20T05:31:19.411Z,4.27
2019-01-20T05:33:49.715Z,4.20
2019-01-20T05:36:21.443Z,4.29
2019-01-20T05:38:51.730Z,4.19
2019-01-20T05:41:22.044Z,4.27
2019-01-20T05:43:52.776Z,4.30
2019-01-20T05:46:23.292Z,4.25
2019-01-20T05:48:53.735Z,4.17
2019-01-20T05:51:24.266Z,4.27
2019-01-20T05:53:55.015Z,4.26
2019-01-20T05:56:25.422Z,4.27
2019-01-20T05:58:55.750Z,4.27
2019-01-20T06:01:27.313Z,4.33
2019-01-20T06:03:57.982Z,4.40
2019-01-20T06:06:28.290Z,4.16
2019-01-20T06:08:58.958Z,4.29
2019-01-20T06:11:29.767Z,4.33
2019-01-20T06:14:00.463Z,4.38
2019-01-20T06:16:30.756Z,4.39
2019-01-20T06:19:01.562Z,4.40
2019-01-20T06:21:32.254Z,4.47
2019-01-20T06:24:02.606Z,4.40
2019-01-20T06:26:33.006Z,4.60
2019-01-20T06:29:03.774Z,4.47
2019-01-20T06:31:34.041Z,4.61
2019-01-20T06:34:04.419Z,4.54
2019-01-20T06:36:36.003Z,4.47
2019-01-20T06:39:08.702Z,4.65
2019-01-20T06:41:39.040Z,4.70
2019-01-20T06:44:09.885Z,4.66
2019-01-20T06:46:40.374Z,4.44
2019-01-20T06:49:10.925Z,4.76
2019-01-20T06:51:41.478Z,3.18
2019-01-20T06:54:12.101Z,4.84
2019-01-20T06:56:42.767Z,4.97
2019-01-20T06:59:13.160Z,4.98
2019-01-20T07:01:43.441Z,5.01
2019-01-20T07:04:13.890Z,4.93
2019-01-20T07:06:44.419Z,5.05
2019-01-20T07:09:15.901Z,5.13
2019-01-20T07:11:46.644Z,5.23
2019-01-20T07:14:17.370Z,5.30
2019-01-20T07:16:47.749Z,5.43
2019-01-20T07:19:18.636Z,5.43
2019-01-20T07:21:49.456Z,5.44
2019-01-20T07:24:19.785Z,5.52
2019-01-20T07:26:50.640Z,5.50
2019-01-20T07:29:21.149Z,5.65
2019-01-20T07:31:51.458Z,5.78
2019-01-20T07:34:21.970Z,5.92
2019-01-20T07:36:52.400Z,5.92
2019-01-20T07:39:23.235Z,6.16
2019-01-20T07:41:53.927Z,6.20
2019-01-20T07:44:24.281Z,6.12
2019-01-20T07:46:54.778Z,6.32
2019-01-20T07:49:25.558Z,6.43
2019-01-20T07:51:56.019Z,6.31
2019-01-20T07:54:26.437Z,6.47
2019-01-20T07:56:57.107Z,6.63
2019-01-20T07:59:27.450Z,6.34
2019-01-20T08:01:57.750Z,6.33
2019-01-20T08:04:28.147Z,6.42
2019-01-20T08:06:58.528Z,6.40
2019-01-20T08:09:28.947Z,6.33
2019-01-20T08:11:59.247Z,6.35
2019-01-20T08:14:29.627Z,6.52
2019-01-20T08:17:00.007Z,6.64
2019-01-20T08:19:30.422Z,6.79
2019-01-20T08:22:00.809Z,6.87
2019-01-20T08:24:31.544Z,7.05
2019-01-20T08:27:01.890Z,6.85
2019-01-20T08:29:32.416Z,6.84
2019-01-20T08:32:03.154Z,6.98
2019-01-20T08:34:33.608Z,7.21
2019-01-20T08:37:04.431Z,7.25
2019-01-20T08:39:34.942Z,7.37
2019-01-20T08:42:05.363Z,7.24
2019-01-20T08:44:39.593Z,7.48
2019-01-20T08:47:32.163Z,7.40
2019-01-20T08:50:02.788Z,7.57
2019-01-20T08:52:33.350Z,7.38
2019-01-20T08:55:04.353Z,7.54
2019-01-20T08:57:34.658Z,7.66
2019-01-20T09:00:07.655Z,7.81
2019-01-20T09:02:38.035Z,7.92
2019-01-20T09:05:08.833Z,8.15
2019-01-20T09:07:39.689Z,7.87
2019-01-20T09:10:18.026Z,8.20
2019-01-20T09:12:48.929Z,8.25
2019-01-20T09:15:19.424Z,8.36
2019-01-20T09:17:50.040Z,8.17
2019-01-20T09:20:20.873Z,7.87
2019-01-20T09:22:51.457Z,8.00
2019-01-20T09:25:21.986Z,8.25
2019-01-20T09:27:54.077Z,8.38
2019-01-20T09:30:24.879Z,8.49
2019-01-20T09:32:57.221Z,8.36
2019-01-20T09:35:27.830Z,8.49
2019-01-20T09:37:58.510Z,8.38
2019-01-20T09:40:28.797Z,8.57
2019-01-20T09:42:59.263Z,8.59
2019-01-20T09:45:31.083Z,8.70
2019-01-20T09:48:01.790Z,8.43
2019-01-20T09:50:32.650Z,8.53
2019-01-20T09:53:02.952Z,8.44
2019-01-20T09:55:33.630Z,8.85
2019-01-20T09:58:04.057Z,9.20
2019-01-20T10:00:34.528Z,9.24
2019-01-20T10:03:04.866Z,9.21
2019-01-20T10:05:35.485Z,9.49
2019-01-20T10:08:06.242Z,9.68
2019-01-20T10:10:36.545Z,9.90
2019-01-20T10:13:07.430Z,9.60
2019-01-20T10:15:37.885Z,9.68
2019-01-20T10:18:08.794Z,9.45
2019-01-20T10:20:39.214Z,9.49
2019-01-20T10:23:09.662Z,9.67
2019-01-20T10:25:40.653Z,9.39
2019-01-20T10:28:12.914Z,9.49
2019-01-20T10:30:43.200Z,9.90
2019-01-20T10:33:13.913Z,9.83
2019-01-20T10:35:50.237Z,10.09
2019-01-20T10:38:20.606Z,10.07
2019-01-20T10:40:51.382Z,10.52
2019-01-20T10:43:22.324Z,10.46
2019-01-20T10:45:52.637Z,10.67
2019-01-20T10:48:23.627Z,10.70
2019-01-20T10:50:54.411Z,10.76
2019-01-20T10:53:24.691Z,11.02
2019-01-20T10:55:55.327Z,10.95
2019-01-20T10:58:25.743Z,11.38
2019-01-20T11:00:56.024Z,11.94
2019-01-20T11:03:26.329Z,12.43
2019-01-20T11:05:56.875Z,12.64
2019-01-20T11:08:27.166Z,12.85
2019-01-20T11:10:57.467Z,12.59
2019-01-20T11:13:28.281Z,12.77
2019-01-20T11:15:58.849Z,12.89
2019-01-20T11:18:29.414Z,12.44
2019-01-20T11:21:00.059Z,12.64
2019-01-20T11:23:30.477Z,12.25
2019-01-20T11:26:01.173Z,11.71
2019-01-20T11:28:31.604Z,11.95
2019-01-20T11:31:01.877Z,11.95
2019-01-20T11:33:32.663Z,11.91
2019-01-20T11:36:03.126Z,11.91
2019-01-20T11:38:33.414Z,12.05
2019-01-20T11:41:04.172Z,11.79
2019-01-20T11:43:34.879Z,11.83
2019-01-20T11:46:05.447Z,11.69
2019-01-20T11:48:36.146Z,11.33
2019-01-20T11:51:06.831Z,11.50
2019-01-20T11:53:37.595Z,11.47
2019-01-20T11:56:08.060Z,11.23
2019-01-20T11:58:38.392Z,11.17
2019-01-20T12:01:09.674Z,11.23
2019-01-20T12:03:40.365Z,11.12
2019-01-20T12:06:10.791Z,11.11
2019-01-20T12:08:41.413Z,10.71
2019-01-20T12:11:12.171Z,10.47
2019-01-20T12:13:42.451Z,10.43
2019-01-20T12:16:13.226Z,10.38
2019-01-20T12:18:44.025Z,10.07
2019-01-20T12:21:15.468Z,10.14
2019-01-20T12:23:46.118Z,10.08
2019-01-20T12:26:16.448Z,9.73
2019-01-20T12:28:46.837Z,9.80
2019-01-20T12:31:17.548Z,9.79
2019-01-20T12:33:47.845Z,9.56
2019-01-20T12:36:18.444Z,9.55
2019-01-20T12:38:49.081Z,9.36
2019-01-20T12:41:19.686Z,9.21
2019-01-20T12:43:49.990Z,9.12
2019-01-20T12:46:20.622Z,9.10
2019-01-20T12:48:50.926Z,8.86
2019-01-20T12:51:28.356Z,8.79
2019-01-20T12:53:53.658Z,8.64
2019-01-20T12:56:24.051Z,8.57
2019-01-20T12:58:54.433Z,8.53
2019-01-20T13:01:24.802Z,8.40
2019-01-20T13:03:55.096Z,8.40
2019-01-20T13:06:25.880Z,8.38
2019-01-20T13:08:56.154Z,8.36
2019-01-20T13:11:26.521Z,8.29
2019-01-20T13:13:57.124Z,8.22
2019-01-20T13:16:27.829Z,8.17
2019-01-20T13:18:58.173Z,7.95
2019-01-20T13:21:28.776Z,8.09
2019-01-20T13:23:59.125Z,7.98
2019-01-20T13:26:29.511Z,7.91
2019-01-20T13:28:59.797Z,7.79
2019-01-20T13:31:30.203Z,7.61
2019-01-20T13:34:00.773Z,7.57
2019-01-20T13:36:31.334Z,7.58
2019-01-20T13:39:01.694Z,7.47
2019-01-20T13:41:34.533Z,7.41
2019-01-20T13:44:08.850Z,7.44
2019-01-20T13:46:39.355Z,7.43
2019-01-20T13:49:10.079Z,7.45
2019-01-20T13:51:40.994Z,7.12
2019-01-20T13:54:11.304Z,7.09
2019-01-20T13:56:41.688Z,7.19
2019-01-20T13:59:11.965Z,7.15
2019-01-20T14:01:42.911Z,7.34
2019-01-20T14:04:13.647Z,7.17
2019-01-20T14:06:43.976Z,7.04
2019-01-20T14:09:14.515Z,7.19
2019-01-20T14:11:45.303Z,6.91
2019-01-20T14:14:15.710Z,5.77
2019-01-20T14:16:46.289Z,5.61
2019-01-20T14:19:21.700Z,5.89
2019-01-20T14:21:49.258Z,5.63
2019-01-20T14:24:19.550Z,5.54
2019-01-20T14:26:50.377Z,5.76
2019-01-20T14:29:20.660Z,5.70
2019-01-20T14:31:51.520Z,5.88
2019-01-20T14:34:21.817Z,5.77
2019-01-20T14:36:52.273Z,5.72
2019-01-20T14:39:22.923Z,5.93
2019-01-20T14:41:53.273Z,5.49
2019-01-20T14:44:23.606Z,5.48
2019-01-20T14:46:54.396Z,5.86
2019-01-20T14:49:24.727Z,5.68
2019-01-20T14:51:55.438Z,5.30
2019-01-20T14:54:26.120Z,5.46
2019-01-20T14:56:56.698Z,5.39
2019-01-20T14:59:27.023Z,5.52
2019-01-20T15:01:57.752Z,5.37
2019-01-20T15:04:28.537Z,5.42
2019-01-20T15:06:58.954Z,5.27
2019-01-20T15:09:29.582Z,5.39
2019-01-20T15:12:00.414Z,5.44
2019-01-20T15:14:30.848Z,5.12
2019-01-20T15:17:01.521Z,5.21
2019-01-20T15:19:32.153Z,4.82
2019-01-20T15:22:02.830Z,4.80
2019-01-20T15:24:33.154Z,4.76
2019-01-20T15:27:03.968Z,4.59
2019-01-20T15:29:34.299Z,4.65
2019-01-20T15:32:04.857Z,4.69
2019-01-20T15:34:35.485Z,4.56
2019-01-20T15:37:06.131Z,4.83
2019-01-20T15:39:36.870Z,4.46
2019-01-20T15:42:07.476Z,4.49
2019-01-20T15:44:37.763Z,4.73
2019-01-20T15:47:08.486Z,4.79
2019-01-20T15:49:38.780Z,4.98
2019-01-20T15:52:09.204Z,5.06
2019-01-20T15:54:39.835Z,5.16
2019-01-20T15:57:10.195Z,5.22
2019-01-20T15:59:40.481Z,4.61
2019-01-20T16:02:11.240Z,4.11
2019-01-20T16:04:41.960Z,4.13
2019-01-20T16:07:12.545Z,4.26
2019-01-20T16:09:42.834Z,4.38
2019-01-20T16:12:13.235Z,4.47
2019-01-20T16:14:43.874Z,4.17
2019-01-20T16:17:14.500Z,4.26
2019-01-20T16:19:44.797Z,4.17
2019-01-20T16:22:15.508Z,4.03
2019-01-20T16:24:45.978Z,3.83
2019-01-20T16:27:16.639Z,3.59
2019-01-20T16:29:47.270Z,3.54
2019-01-20T16:32:18.077Z,3.42
2019-01-20T16:34:48.370Z,3.34
2019-01-20T16:37:18.880Z,3.28
2019-01-20T16:39:49.203Z,3.74
2019-01-20T16:42:19.855Z,4.09
2019-01-20T16:44:50.640Z,3.52
2019-01-20T16:47:21.143Z,3.40
2019-01-20T16:49:51.833Z,3.76
2019-01-20T16:52:22.897Z,3.57
2019-01-20T16:54:53.200Z,3.56
2019-01-20T16:57:23.582Z,3.78
2019-01-20T16:59:54.346Z,3.83
2019-01-20T17:02:24.769Z,3.59
2019-01-20T17:04:55.174Z,3.54
2019-01-20T17:07:26.101Z,3.35
2019-01-20T17:09:56.413Z,3.21
2019-01-20T17:12:26.720Z,3.28
2019-01-20T17:14:57.455Z,3.25
2019-01-20T17:17:28.082Z,3.47
2019-01-20T17:19:58.349Z,3.47
2019-01-20T17:22:29.052Z,3.57
2019-01-20T17:24:59.428Z,3.78
2019-01-20T17:27:29.701Z,3.59
2019-01-20T17:30:00.472Z,3.64
2019-01-20T17:32:31.335Z,3.35
2019-01-20T17:35:01.625Z,3.21
2019-01-20T17:37:32.119Z,3.24
2019-01-20T17:40:02.824Z,3.31
2019-01-20T17:42:33.142Z,3.12
2019-01-20T17:45:03.966Z,3.03
2019-01-20T17:47:34.311Z,3.08
2019-01-20T17:50:06.672Z,3.03
2019-01-20T17:52:37.188Z,3.03
2019-01-20T17:55:07.873Z,3.04
2019-01-20T17:57:38.527Z,3.06
2019-01-20T18:00:12.279Z,3.17
2019-01-20T18:02:42.901Z,3.26
2019-01-20T18:05:14.822Z,3.41
2019-01-20T18:07:45.699Z,3.51
2019-01-20T18:10:16.197Z,3.74
2019-01-20T18:12:46.737Z,3.86
2019-01-20T18:15:18.227Z,4.04
2019-01-20T18:17:48.781Z,4.00
2019-01-20T18:20:21.867Z,4.12
2019-01-20T18:22:52.229Z,4.17
2019-01-20T18:25:22.822Z,4.13
2019-01-20T18:27:53.648Z,3.96
2019-01-20T18:30:25.640Z,3.71
2019-01-20T18:32:55.946Z,3.62
2019-01-20T18:35:27.243Z,3.84
2019-01-20T18:37:58.070Z,4.25
2019-01-20T18:40:28.630Z,4.36
2019-01-20T18:42:59.375Z,4.39
2019-01-20T18:45:31.687Z,4.04
2019-01-20T18:48:02.208Z,3.64
2019-01-20T18:50:34.477Z,3.62
2019-01-20T18:53:05.337Z,3.97
2019-01-20T18:55:36.842Z,4.16
2019-01-20T18:58:07.673Z,4.25
2019-01-20T19:00:44.146Z,4.31
2019-01-20T19:03:14.989Z,4.18
2019-01-20T19:05:45.853Z,4.49
2019-01-20T19:08:16.174Z,4.60
2019-01-20T19:10:46.835Z,4.60
2019-01-20T19:13:17.555Z,4.61
2019-01-20T19:15:47.924Z,4.59
2019-01-20T19:18:19.108Z,4.63
2019-01-20T19:20:49.800Z,4.60
2019-01-20T19:23:20.103Z,4.62
2019-01-20T19:25:50.448Z,4.73
2019-01-20T19:28:21.220Z,4.69
2019-01-20T19:30:51.580Z,4.59
2019-01-20T19:33:21.936Z,4.51
2019-01-20T19:35:52.905Z,4.72
2019-01-20T19:38:23.393Z,4.83
2019-01-20T19:40:53.873Z,4.76
2019-01-20T19:43:24.391Z,4.76
2019-01-20T19:45:54.813Z,4.66
2019-01-20T19:48:25.106Z,4.79
2019-01-20T19:50:55.532Z,4.66
2019-01-20T19:53:25.825Z,4.40
2019-01-20T19:55:56.728Z,4.63
2019-01-20T19:58:27.225Z,4.37
2019-01-20T20:00:57.776Z,4.33
2019-01-20T20:03:28.728Z,4.04
2019-01-20T20:05:59.523Z,4.20
2019-01-20T20:08:29.815Z,4.43
2019-01-20T20:11:00.506Z,4.09
2019-01-20T20:13:31.173Z,4.31
2019-01-20T20:16:01.779Z,4.18
2019-01-20T20:18:32.245Z,3.86
2019-01-20T20:21:02.988Z,4.18
2019-01-20T20:23:33.302Z,4.20
2019-01-20T20:26:03.831Z,4.01
2019-01-20T20:28:34.229Z,3.67
2019-01-20T20:31:05.402Z,3.77
2019-01-20T20:33:35.928Z,4.01
2019-01-20T20:36:06.319Z,4.02
2019-01-20T20:38:38.340Z,4.02
2019-01-20T20:41:09.186Z,4.05
2019-01-20T20:43:39.511Z,3.95
2019-01-20T20:46:09.970Z,3.57
2019-01-20T20:48:40.354Z,3.59
2019-01-20T20:51:10.929Z,3.71
2019-01-20T20:53:41.246Z,3.84
2019-01-20T20:56:12.014Z,3.87
2019-01-20T20:58:42.449Z,3.72
2019-01-20T21:01:13.259Z,3.85
2019-01-20T21:03:43.905Z,3.80
2019-01-20T21:06:14.394Z,4.07
2019-01-20T21:08:48.466Z,4.10
2019-01-20T21:11:17.279Z,4.10
2019-01-20T21:13:47.541Z,4.25
2019-01-20T21:16:18.155Z,4.17
2019-01-20T21:18:48.682Z,4.20
2019-01-20T21:21:18.998Z,4.24
2019-01-20T21:23:49.673Z,4.28
2019-01-20T21:26:20.368Z,4.11
2019-01-20T21:28:50.752Z,4.13
2019-01-20T21:31:21.340Z,4.20
2019-01-20T21:33:51.634Z,4.05
2019-01-20T21:36:22.481Z,3.55
2019-01-20T21:38:52.911Z,3.18
2019-01-20T21:41:23.255Z,3.15
2019-01-20T21:43:53.926Z,3.46
2019-01-20T21:46:24.506Z,3.78
2019-01-20T21:48:54.793Z,3.75
2019-01-20T21:51:25.568Z,3.91
2019-01-20T21:53:56.049Z,4.02
2019-01-20T21:56:26.486Z,4.10
2019-01-20T21:58:56.906Z,4.03
2019-01-20T22:01:27.500Z,3.98
2019-01-20T22:03:57.963Z,3.96
2019-01-20T22:06:28.640Z,3.89
2019-01-20T22:08:59.092Z,3.75
2019-01-20T22:11:29.826Z,3.77
2019-01-20T22:14:00.208Z,4.02
2019-01-20T22:16:30.552Z,3.92
2019-01-20T22:19:01.135Z,3.52
2019-01-20T22:21:32.055Z,3.51
2019-01-20T22:24:02.372Z,3.26
2019-01-20T22:26:32.719Z,3.10
2019-01-20T22:29:03.374Z,3.11
2019-01-20T22:31:36.068Z,2.75
2019-01-20T22:34:06.777Z,2.69
2019-01-20T22:36:37.463Z,2.58
2019-01-20T22:39:09.074Z,2.62
2019-01-20T22:41:39.544Z,2.56
2019-01-20T22:44:09.832Z,2.38
2019-01-20T22:46:40.180Z,2.41
2019-01-20T22:49:10.869Z,2.32
2019-01-20T22:51:41.269Z,2.33
2019-01-20T22:54:11.811Z,2.21
2019-01-20T22:56:42.489Z,2.13
2019-01-20T22:59:13.003Z,2.50
2019-01-20T23:01:43.298Z,2.78
2019-01-20T23:04:13.953Z,2.81
2019-01-20T23:06:44.354Z,2.87
2019-01-20T23:09:15.106Z,2.90
2019-01-20T23:11:45.405Z,3.08
2019-01-20T23:14:15.699Z,3.06
2019-01-20T23:16:46.096Z,3.30
2019-01-20T23:19:16.702Z,3.53
2019-01-20T23:21:47.031Z,3.57
2019-01-20T23:24:17.828Z,3.59
2019-01-20T23:26:48.617Z,3.61
2019-01-20T23:29:18.962Z,3.70
2019-01-20T23:31:49.705Z,3.70
2019-01-20T23:34:20.454Z,3.77
2019-01-20T23:36:50.778Z,3.87
2019-01-20T23:39:21.217Z,3.73
2019-01-20T23:41:52.026Z,3.39
2019-01-20T23:44:22.365Z,3.61
2019-01-20T23:46:52.668Z,3.75
2019-01-20T23:49:23.354Z,3.88
2019-01-20T23:51:54.002Z,3.97
2019-01-20T23:54:24.347Z,4.10
2019-01-20T23:56:54.991Z,4.18
2019-01-20T23:59:25.658Z,4.16
